createdAt,value
2019-05-10T00:00:35.336Z,2.30
2019-05-10T00:03:21.533Z,2.70
2019-05-10T00:06:07.526Z,2.58
2019-05-10T00:08:47.378Z,2.30
2019-05-10T00:11:20.964Z,2.52
2019-05-10T00:13:53.852Z,2.75
2019-05-10T00:16:22.732Z,2.20
2019-05-10T00:18:51.604Z,2.83
2019-05-10T00:21:20.042Z,3.02
2019-05-10T00:23:48.506Z,3.17
2019-05-10T00:26:17.015Z,3.22
2019-05-10T00:28:45.724Z,3.20
2019-05-10T00:31:14.157Z,3.17
2019-05-10T00:33:42.691Z,3.20
2019-05-10T00:36:11.411Z,3.37
2019-05-10T00:38:40.144Z,3.47
2019-05-10T00:41:08.871Z,2.80
2019-05-10T00:43:37.316Z,3.20
2019-05-10T00:46:05.815Z,3.35
2019-05-10T00:48:34.351Z,3.10
2019-05-10T00:51:02.813Z,3.47
2019-05-10T00:53:31.237Z,3.37
2019-05-10T00:55:59.774Z,3.52
2019-05-10T00:58:28.196Z,3.37
2019-05-10T01:00:56.633Z,3.62
2019-05-10T01:03:25.361Z,3.65
2019-05-10T01:05:53.866Z,4.22
2019-05-10T01:08:22.299Z,4.47
2019-05-10T01:10:51.074Z,4.40
2019-05-10T01:13:19.512Z,4.40
2019-05-10T01:15:47.973Z,4.20
2019-05-10T01:18:16.405Z,4.83
2019-05-10T01:20:44.982Z,5.45
2019-05-10T01:23:13.670Z,6.37
2019-05-10T01:25:42.109Z,6.83
2019-05-10T01:28:10.529Z,7.22
2019-05-10T01:30:38.952Z,7.40
2019-05-10T01:33:07.645Z,7.67
2019-05-10T01:35:36.059Z,7.80
2019-05-10T01:38:04.481Z,8.08
2019-05-10T01:40:33.063Z,7.87
2019-05-10T01:43:01.493Z,8.10
2019-05-10T01:45:29.995Z,8.38
2019-05-10T01:47:58.822Z,9.43
2019-05-10T01:50:27.250Z,9.78
2019-05-10T01:52:55.704Z,10.72
2019-05-10T01:55:24.375Z,10.85
2019-05-10T01:57:53.201Z,11.68
2019-05-10T02:00:22.208Z,12.95
2019-05-10T02:02:50.832Z,14.80
2019-05-10T02:05:20.028Z,13.85
2019-05-10T02:07:48.488Z,16.07
2019-05-10T02:10:17.100Z,16.85
2019-05-10T02:12:45.543Z,17.07
2019-05-10T02:15:14.320Z,17.77
2019-05-10T02:17:42.929Z,18.73
2019-05-10T02:20:12.327Z,20.10
2019-05-10T02:22:40.903Z,19.42
2019-05-10T02:25:09.624Z,18.32
2019-05-10T02:27:38.130Z,20.77
2019-05-10T02:30:08.115Z,20.43
2019-05-10T02:32:36.579Z,20.20
2019-05-10T02:35:07.180Z,19.82
2019-05-10T02:37:35.602Z,19.85
2019-05-10T02:40:05.501Z,19.80
2019-05-10T02:42:34.215Z,19.98
2019-05-10T02:45:02.944Z,19.48
2019-05-10T02:47:31.902Z,19.95
2019-05-10T02:50:00.360Z,20.43
2019-05-10T02:52:28.786Z,21.65
2019-05-10T02:54:57.413Z,20.62
2019-05-10T02:57:26.695Z,21.05
2019-05-10T02:59:55.772Z,20.75
2019-05-10T03:02:25.048Z,21.62
2019-05-10T03:04:54.533Z,22.05
2019-05-10T03:07:25.739Z,22.42
2019-05-10T03:09:54.524Z,22.55
2019-05-10T03:12:24.734Z,22.32
2019-05-10T03:14:55.688Z,22.13
2019-05-10T03:17:25.540Z,22.77
2019-05-10T03:19:55.101Z,23.77
2019-05-10T03:22:25.505Z,24.20
2019-05-10T03:24:54.142Z,25.52
2019-05-10T03:27:22.600Z,24.77
2019-05-10T03:29:51.720Z,23.90
2019-05-10T03:32:20.961Z,24.02
2019-05-10T03:34:49.731Z,24.57
2019-05-10T03:37:18.578Z,24.30
2019-05-10T03:39:47.420Z,24.00
2019-05-10T03:42:15.907Z,24.80
2019-05-10T03:44:44.614Z,24.80
2019-05-10T03:47:13.250Z,25.45
2019-05-10T03:49:41.699Z,25.08
2019-05-10T03:52:10.151Z,23.80
2019-05-10T03:54:38.709Z,24.90
2019-05-10T03:57:13.959Z,25.02
2019-05-10T03:59:37.529Z,24.75
2019-05-10T04:02:06.065Z,24.72
2019-05-10T04:04:34.935Z,22.85
2019-05-10T04:07:03.552Z,23.05
2019-05-10T04:09:32.108Z,23.32
2019-05-10T04:12:00.562Z,23.55
2019-05-10T04:14:28.984Z,23.42
2019-05-10T04:16:57.444Z,23.05
2019-05-10T04:19:25.914Z,23.07
2019-05-10T04:21:54.633Z,23.05
2019-05-10T04:24:23.198Z,23.32
2019-05-10T04:26:51.626Z,23.80
2019-05-10T04:29:20.089Z,22.82
2019-05-10T04:31:48.565Z,23.20
2019-05-10T04:34:17.563Z,23.32
2019-05-10T04:36:46.171Z,21.93
2019-05-10T04:39:14.626Z,22.87
2019-05-10T04:41:43.324Z,22.93
2019-05-10T04:44:11.786Z,22.65
2019-05-10T04:46:40.228Z,22.35
2019-05-10T04:49:08.709Z,21.27
2019-05-10T04:51:37.344Z,22.10
2019-05-10T04:54:05.774Z,22.27
2019-05-10T04:56:34.297Z,22.45
2019-05-10T04:59:02.838Z,23.00
2019-05-10T05:01:31.550Z,23.77
2019-05-10T05:03:59.987Z,24.57
2019-05-10T05:06:28.755Z,24.87
2019-05-10T05:08:57.279Z,22.90
2019-05-10T05:11:25.718Z,23.77
2019-05-10T05:13:54.316Z,23.45
2019-05-10T05:16:22.846Z,24.05
2019-05-10T05:18:51.285Z,22.25
2019-05-10T05:21:20.059Z,22.52
2019-05-10T05:23:48.693Z,21.87
2019-05-10T05:26:17.164Z,21.75
2019-05-10T05:28:45.701Z,21.35
2019-05-10T05:31:14.174Z,20.35
2019-05-10T05:33:42.614Z,20.70
2019-05-10T05:36:11.578Z,20.17
2019-05-10T05:38:46.445Z,20.25
2019-05-10T05:41:10.163Z,20.12
2019-05-10T05:43:45.562Z,20.65
2019-05-10T05:46:08.811Z,19.98
2019-05-10T05:48:40.486Z,20.27
2019-05-10T05:51:07.878Z,19.27
2019-05-10T05:53:42.572Z,19.30
2019-05-10T05:56:12.629Z,19.30
2019-05-10T05:58:37.943Z,19.37
2019-05-10T06:01:07.518Z,18.40
2019-05-10T06:03:35.996Z,19.60
2019-05-10T06:06:15.494Z,20.00
2019-05-10T06:08:34.996Z,20.72
2019-05-10T06:11:03.449Z,20.75
2019-05-10T06:13:32.589Z,21.42
2019-05-10T06:16:06.375Z,21.60
2019-05-10T06:18:31.424Z,22.42
2019-05-10T06:20:59.889Z,23.70
2019-05-10T06:23:29.062Z,22.95
2019-05-10T06:25:58.569Z,21.93
2019-05-10T06:28:56.260Z,21.90
2019-05-10T06:30:57.535Z,20.88
2019-05-10T06:33:26.068Z,20.25
2019-05-10T06:35:54.573Z,21.27
2019-05-10T06:38:23.211Z,20.23
2019-05-10T06:40:51.686Z,19.62
2019-05-10T06:43:20.214Z,18.10
2019-05-10T06:45:52.556Z,17.15
2019-05-10T06:48:26.005Z,16.67
2019-05-10T06:50:49.124Z,14.63
2019-05-10T06:53:17.554Z,14.83
2019-05-10T06:55:46.312Z,14.47
2019-05-10T06:58:14.735Z,14.03
2019-05-10T07:00:45.411Z,12.43
2019-05-10T07:03:13.325Z,11.12
2019-05-10T07:05:41.854Z,11.85
2019-05-10T07:08:19.641Z,12.20
2019-05-10T07:10:40.566Z,11.70
2019-05-10T07:13:09.400Z,10.65
2019-05-10T07:15:42.385Z,11.45
2019-05-10T07:18:08.003Z,10.23
2019-05-10T07:20:36.531Z,10.50
2019-05-10T07:23:06.080Z,10.68
2019-05-10T07:25:42.858Z,11.40
2019-05-10T07:28:09.338Z,12.28
2019-05-10T07:30:41.542Z,13.08
2019-05-10T07:33:08.394Z,12.80
2019-05-10T07:35:38.637Z,13.78
2019-05-10T07:38:07.072Z,14.50
2019-05-10T07:40:35.609Z,14.83
2019-05-10T07:43:04.214Z,16.48
2019-05-10T07:45:32.739Z,15.43
2019-05-10T07:48:02.369Z,15.98
2019-05-10T07:50:31.556Z,16.20
2019-05-10T07:53:00.014Z,15.30
2019-05-10T07:55:30.033Z,14.55
2019-05-10T07:58:04.832Z,15.35
2019-05-10T08:00:29.271Z,14.98
2019-05-10T08:03:07.589Z,15.93
2019-05-10T08:05:29.676Z,14.35
2019-05-10T08:07:58.992Z,14.45
2019-05-10T08:10:28.935Z,13.10
2019-05-10T08:12:59.622Z,12.13
2019-05-10T08:15:30.535Z,12.50
2019-05-10T08:17:58.614Z,12.95
2019-05-10T08:20:41.474Z,12.28
2019-05-10T08:22:57.549Z,11.33
2019-05-10T08:25:28.949Z,11.73
2019-05-10T08:27:56.543Z,11.05
2019-05-10T08:30:51.896Z,10.40
2019-05-10T08:33:14.371Z,10.70
2019-05-10T08:35:46.046Z,10.03
2019-05-10T08:38:13.503Z,9.83
2019-05-10T08:40:42.977Z,9.18
2019-05-10T08:43:15.597Z,8.58
2019-05-10T08:45:44.878Z,9.03
2019-05-10T08:48:12.724Z,9.55
2019-05-10T08:50:53.343Z,8.75
2019-05-10T08:53:16.311Z,8.93
2019-05-10T08:55:43.299Z,9.83
2019-05-10T08:58:12.506Z,9.40
2019-05-10T09:00:53.803Z,9.80
2019-05-10T09:03:18.083Z,10.23
2019-05-10T09:05:43.231Z,7.80
2019-05-10T09:08:19.499Z,6.15
2019-05-10T09:10:42.351Z,5.70
2019-05-10T09:13:12.913Z,6.00
2019-05-10T09:15:51.344Z,6.00
2019-05-10T09:18:12.771Z,4.70
2019-05-10T09:20:42.103Z,5.22
2019-05-10T09:23:17.881Z,4.65
2019-05-10T09:25:42.584Z,4.40
2019-05-10T09:28:16.551Z,5.25
2019-05-10T09:30:56.429Z,4.75
2019-05-10T09:33:14.218Z,4.95
2019-05-10T09:35:46.819Z,4.95
2019-05-10T09:38:12.708Z,3.70
2019-05-10T09:40:50.691Z,3.08
2019-05-10T09:43:12.491Z,2.58
2019-05-10T09:45:42.364Z,2.40
2019-05-10T09:48:12.091Z,2.50
2019-05-10T09:50:46.521Z,2.25
2019-05-10T09:53:13.528Z,2.12
2019-05-10T09:55:45.567Z,2.17
2019-05-10T09:58:11.444Z,2.40
2019-05-10T10:00:40.113Z,2.22
2019-05-10T10:03:08.693Z,2.00
2019-05-10T10:05:39.796Z,2.30
2019-05-10T10:08:09.117Z,2.37
2019-05-10T10:10:37.649Z,3.08
2019-05-10T10:13:12.038Z,2.60
2019-05-10T10:15:37.292Z,2.65
2019-05-10T10:18:06.343Z,3.27
2019-05-10T10:20:40.663Z,2.98
2019-05-10T10:23:07.266Z,2.75
2019-05-10T10:25:40.641Z,2.25
2019-05-10T10:28:08.227Z,2.20
2019-05-10T10:30:38.127Z,1.90
2019-05-10T10:33:11.515Z,1.30
2019-05-10T10:35:37.747Z,1.98
2019-05-10T10:38:08.077Z,1.47
2019-05-10T10:40:44.057Z,1.67
2019-05-10T10:43:07.688Z,1.67
2019-05-10T10:45:37.727Z,1.57
2019-05-10T10:48:08.511Z,1.45
2019-05-10T10:50:36.518Z,1.62
2019-05-10T10:53:04.923Z,1.70
2019-05-10T10:55:39.372Z,1.65
2019-05-10T10:58:07.139Z,1.82
2019-05-10T11:00:39.028Z,1.50
2019-05-10T11:03:06.911Z,1.20
2019-05-10T11:05:35.460Z,1.20
2019-05-10T11:08:04.211Z,1.20
2019-05-10T11:10:33.288Z,1.20
2019-05-10T11:13:10.646Z,1.27
2019-05-10T11:15:35.797Z,1.62
2019-05-10T11:18:02.722Z,1.80
2019-05-10T11:20:31.912Z,1.80
2019-05-10T11:23:00.450Z,1.87
2019-05-10T11:25:29.126Z,1.50
2019-05-10T11:28:00.969Z,1.70
2019-05-10T11:30:27.888Z,1.70
2019-05-10T11:32:56.645Z,1.87
2019-05-10T11:35:31.003Z,1.85
2019-05-10T11:37:55.517Z,2.05
2019-05-10T11:40:30.790Z,2.00
2019-05-10T11:42:54.216Z,1.80
2019-05-10T11:45:26.009Z,1.85
2019-05-10T11:47:58.724Z,1.85
2019-05-10T11:52:53.858Z,1.85
2019-05-10T11:55:22.981Z,1.75
2019-05-10T11:58:02.046Z,1.60
2019-05-10T11:59:05.051Z,1.67
2019-05-10T12:00:29.067Z,1.45
2019-05-10T12:03:06.979Z,1.55
2019-05-10T12:05:26.303Z,2.00
2019-05-10T12:07:54.674Z,1.80
2019-05-10T12:10:25.656Z,1.32
2019-05-10T12:13:06.035Z,2.02
2019-05-10T12:15:25.575Z,2.25
2019-05-10T12:17:59.210Z,2.02
2019-05-10T12:20:39.116Z,1.67
2019-05-10T12:22:54.899Z,1.87
2019-05-10T12:26:16.033Z,2.22
2019-05-10T12:27:53.656Z,1.80
2019-05-10T12:30:22.360Z,2.30
2019-05-10T12:32:56.151Z,2.00
2019-05-10T12:35:21.391Z,1.72
2019-05-10T12:37:54.162Z,1.60
2019-05-10T12:40:23.838Z,1.70
2019-05-10T12:42:50.744Z,1.47
2019-05-10T12:45:23.135Z,1.60
2019-05-10T12:47:51.689Z,2.08
2019-05-10T12:50:20.718Z,1.92
2019-05-10T12:53:01.880Z,1.92
2019-05-10T12:55:19.604Z,1.40
2019-05-10T12:57:48.070Z,1.67
2019-05-10T13:00:17.030Z,1.40
2019-05-10T13:02:51.304Z,1.42
2019-05-10T13:05:16.231Z,1.37
2019-05-10T13:07:44.695Z,1.47
2019-05-10T13:10:13.617Z,1.40
2019-05-10T13:12:47.332Z,1.70
2019-05-10T13:15:13.122Z,1.62
2019-05-10T13:17:50.661Z,1.85
2019-05-10T13:20:12.788Z,1.40
2019-05-10T13:22:42.698Z,1.42
2019-05-10T13:25:11.599Z,1.37
2019-05-10T13:27:43.198Z,1.60
2019-05-10T13:30:12.221Z,1.50
2019-05-10T13:32:40.743Z,1.92
2019-05-10T13:35:09.716Z,1.77
2019-05-10T13:37:38.143Z,2.17
2019-05-10T13:40:08.192Z,1.75
2019-05-10T13:42:43.071Z,1.77
2019-05-10T13:45:07.853Z,1.60
2019-05-10T13:47:36.314Z,1.40
2019-05-10T13:50:06.380Z,1.77
2019-05-10T13:52:40.890Z,1.55
2019-05-10T13:55:06.831Z,1.62
2019-05-10T13:57:35.288Z,1.67
2019-05-10T14:00:06.392Z,1.70
2019-05-10T14:02:35.068Z,1.90
2019-05-10T14:05:04.073Z,1.60
2019-05-10T14:07:32.493Z,1.62
2019-05-10T14:10:01.054Z,1.77
2019-05-10T14:12:29.518Z,2.00
2019-05-10T14:15:02.375Z,1.65
2019-05-10T14:17:28.231Z,1.92
2019-05-10T14:19:56.723Z,2.05
2019-05-10T14:22:25.331Z,1.85
2019-05-10T14:24:58.885Z,2.10
2019-05-10T14:27:23.939Z,1.95
2019-05-10T14:29:52.437Z,1.95
2019-05-10T14:32:20.973Z,1.82
2019-05-10T14:34:49.411Z,2.00
2019-05-10T14:37:19.710Z,1.87
2019-05-10T14:39:48.004Z,1.80
2019-05-10T14:42:16.417Z,2.20
2019-05-10T14:44:44.882Z,1.70
2019-05-10T14:47:13.312Z,1.95
2019-05-10T14:49:46.220Z,2.22
2019-05-10T14:52:12.006Z,2.05
2019-05-10T14:54:43.750Z,2.17
2019-05-10T14:57:10.691Z,2.30
2019-05-10T14:59:39.165Z,1.80
2019-05-10T15:02:07.744Z,2.75
2019-05-10T15:04:45.224Z,1.98
2019-05-10T15:07:08.703Z,2.30
2019-05-10T15:09:36.955Z,2.00
2019-05-10T15:12:10.117Z,2.00
2019-05-10T15:14:35.755Z,2.12
2019-05-10T15:17:04.300Z,2.15
2019-05-10T15:19:32.730Z,1.90
2019-05-10T15:22:01.302Z,1.67
2019-05-10T15:24:29.754Z,1.92
2019-05-10T15:26:58.376Z,1.87
2019-05-10T15:29:26.849Z,1.55
2019-05-10T15:31:55.640Z,1.85
2019-05-10T15:34:24.096Z,1.82
2019-05-10T15:36:52.787Z,2.15
2019-05-10T15:39:23.130Z,2.30
2019-05-10T15:41:53.646Z,1.90
2019-05-10T15:44:30.225Z,2.10
2019-05-10T15:46:52.123Z,2.35
2019-05-10T15:49:24.312Z,2.08
2019-05-10T15:52:00.545Z,2.40
2019-05-10T15:54:21.524Z,2.20
2019-05-10T15:56:50.005Z,2.20
2019-05-10T15:59:23.831Z,2.02
2019-05-10T16:01:48.711Z,1.92
2019-05-10T16:04:17.138Z,2.05
2019-05-10T16:06:45.820Z,1.90
2019-05-10T16:09:19.125Z,2.40
2019-05-10T16:11:44.560Z,2.42
2019-05-10T16:14:13.025Z,2.15
2019-05-10T16:16:41.471Z,2.40
2019-05-10T16:19:12.956Z,2.33
2019-05-10T16:21:40.087Z,2.98
2019-05-10T16:24:08.566Z,3.40
2019-05-10T16:26:37.001Z,2.33
2019-05-10T16:29:05.699Z,2.50
2019-05-10T16:31:34.942Z,2.30
2019-05-10T16:34:03.422Z,2.25
2019-05-10T16:36:31.875Z,2.17
2019-05-10T16:39:01.801Z,2.02
2019-05-10T16:41:30.630Z,2.20
2019-05-10T16:44:00.197Z,2.15
2019-05-10T16:46:28.860Z,4.15
2019-05-10T16:48:57.297Z,2.72
2019-05-10T16:51:26.113Z,2.25
2019-05-10T16:53:54.527Z,2.87
2019-05-10T16:56:22.966Z,2.70
2019-05-10T16:58:53.222Z,2.02
2019-05-10T17:01:25.156Z,2.60
2019-05-10T17:03:59.684Z,2.65
2019-05-10T17:06:22.347Z,2.37
2019-05-10T17:08:50.986Z,1.92
2019-05-10T17:11:19.451Z,2.12
2019-05-10T17:13:47.895Z,2.08
2019-05-10T17:16:17.455Z,2.22
2019-05-10T17:18:49.704Z,2.37
2019-05-10T17:21:16.718Z,2.67
2019-05-10T17:23:46.955Z,2.35
2019-05-10T17:26:15.503Z,2.40
2019-05-10T17:28:43.960Z,2.30
2019-05-10T17:31:12.403Z,2.58
2019-05-10T17:33:42.819Z,2.50
2019-05-10T17:36:14.414Z,2.10
2019-05-10T17:38:41.638Z,2.25
2019-05-10T17:41:10.084Z,2.00
2019-05-10T17:43:38.647Z,3.22
2019-05-10T17:46:07.445Z,2.20
2019-05-10T17:48:40.843Z,2.60
2019-05-10T17:51:06.279Z,2.30
2019-05-10T17:53:34.728Z,2.95
2019-05-10T17:56:03.365Z,2.50
2019-05-10T17:58:33.957Z,3.05
2019-05-10T18:01:02.152Z,2.75
2019-05-10T18:03:30.585Z,2.37
2019-05-10T18:05:59.270Z,2.65
2019-05-10T18:08:27.867Z,2.35
2019-05-10T18:10:57.182Z,2.55
2019-05-10T18:13:26.733Z,3.15
2019-05-10T18:15:55.153Z,2.45
2019-05-10T18:18:23.634Z,2.40
2019-05-10T18:20:52.388Z,2.35
2019-05-10T18:23:22.777Z,3.27
2019-05-10T18:25:52.567Z,2.58
2019-05-10T18:28:21.895Z,2.50
2019-05-10T18:30:50.433Z,2.77
2019-05-10T18:33:19.059Z,2.22
2019-05-10T18:35:52.649Z,2.33
2019-05-10T18:38:19.332Z,2.50
2019-05-10T18:40:47.764Z,2.45
2019-05-10T18:43:16.271Z,2.27
2019-05-10T18:45:44.735Z,2.55
2019-05-10T18:48:13.403Z,2.47
2019-05-10T18:50:45.484Z,2.70
2019-05-10T18:53:12.121Z,2.65
2019-05-10T18:55:40.624Z,2.50
2019-05-10T18:58:09.146Z,2.45
2019-05-10T19:00:40.219Z,2.62
2019-05-10T19:03:07.735Z,3.05
2019-05-10T19:05:36.267Z,2.30
2019-05-10T19:08:06.007Z,2.65
2019-05-10T19:10:35.069Z,3.30
2019-05-10T19:13:05.332Z,2.87
2019-05-10T19:15:33.691Z,2.87
2019-05-10T19:18:02.164Z,3.17
2019-05-10T19:20:30.883Z,2.72
2019-05-10T19:22:59.324Z,3.00
2019-05-10T19:25:27.812Z,4.15
2019-05-10T19:27:56.495Z,2.90
2019-05-10T19:30:26.038Z,3.58
2019-05-10T19:32:56.464Z,3.60
2019-05-10T19:35:29.961Z,3.87
2019-05-10T19:37:54.993Z,4.20
2019-05-10T19:40:23.674Z,4.03
2019-05-10T19:42:52.162Z,4.47
2019-05-10T19:45:21.142Z,4.20
2019-05-10T19:47:55.432Z,4.80
2019-05-10T19:50:24.298Z,4.50
2019-05-10T19:52:50.430Z,4.40
2019-05-10T19:55:21.515Z,5.00
2019-05-10T19:57:54.066Z,4.55
2019-05-10T20:00:19.890Z,4.28
2019-05-10T20:02:48.464Z,4.12
2019-05-10T20:05:16.990Z,3.70
2019-05-10T20:07:46.633Z,3.70
2019-05-10T20:10:16.098Z,3.55
2019-05-10T20:12:44.602Z,3.65
2019-05-10T20:15:13.756Z,4.45
2019-05-10T20:17:42.355Z,3.90
2019-05-10T20:20:11.034Z,3.37
2019-05-10T20:22:39.457Z,3.65
2019-05-10T20:25:08.349Z,4.03
2019-05-10T20:27:36.770Z,4.30
2019-05-10T20:30:07.666Z,4.33
2019-05-10T20:32:36.185Z,4.25
2019-05-10T20:35:06.831Z,4.53
2019-05-10T20:37:35.264Z,3.92
2019-05-10T20:40:04.562Z,4.60
2019-05-10T20:42:33.038Z,4.22
2019-05-10T20:45:07.691Z,4.58
2019-05-10T20:47:31.628Z,4.20
2019-05-10T20:50:00.367Z,4.30
2019-05-10T20:52:28.811Z,4.60
2019-05-10T20:54:57.556Z,4.37
2019-05-10T20:57:26.002Z,4.50
2019-05-10T20:59:54.704Z,4.55
2019-05-10T21:02:23.401Z,4.47
2019-05-10T21:04:51.833Z,4.55
2019-05-10T21:07:20.265Z,4.50
2019-05-10T21:09:48.864Z,4.30
2019-05-10T21:12:17.300Z,4.53
2019-05-10T21:14:45.724Z,4.45
2019-05-10T21:17:14.175Z,4.90
2019-05-10T21:19:42.624Z,5.05
2019-05-10T21:22:11.410Z,5.10
2019-05-10T21:24:39.855Z,5.92
2019-05-10T21:27:08.342Z,6.33
2019-05-10T21:29:36.783Z,5.87
2019-05-10T21:32:05.851Z,5.97
2019-05-10T21:34:34.583Z,5.50
2019-05-10T21:37:02.995Z,5.42
2019-05-10T21:39:31.706Z,5.47
2019-05-10T21:42:00.140Z,5.60
2019-05-10T21:44:28.875Z,5.45
2019-05-10T21:46:57.321Z,5.50
2019-05-10T21:49:25.788Z,5.45
2019-05-10T21:51:54.215Z,5.25
2019-05-10T21:54:22.830Z,5.10
2019-05-10T21:56:51.399Z,6.03
2019-05-10T21:59:19.812Z,5.85
2019-05-10T22:01:48.587Z,5.97
2019-05-10T22:04:17.311Z,5.50
2019-05-10T22:06:45.742Z,5.50
2019-05-10T22:09:14.479Z,6.03
2019-05-10T22:11:42.903Z,5.85
2019-05-10T22:14:11.340Z,6.20
2019-05-10T22:16:39.965Z,6.30
2019-05-10T22:19:08.404Z,5.95
2019-05-10T22:21:36.829Z,5.90
2019-05-10T22:24:05.672Z,6.47
2019-05-10T22:26:34.100Z,5.87
2019-05-10T22:29:02.794Z,6.05
2019-05-10T22:31:31.227Z,6.17
2019-05-10T22:33:59.664Z,6.53
2019-05-10T22:36:28.106Z,6.60
2019-05-10T22:39:06.699Z,5.72
2019-05-10T22:41:27.061Z,6.45
2019-05-10T22:43:55.475Z,5.95
2019-05-10T22:46:24.044Z,6.65
2019-05-10T22:48:52.474Z,7.12
2019-05-10T22:51:20.898Z,6.28
2019-05-10T22:53:59.417Z,6.62
2019-05-10T22:56:19.859Z,5.58
2019-05-10T22:58:48.285Z,6.55
2019-05-10T23:01:16.757Z,7.10
2019-05-10T23:03:45.182Z,6.90
2019-05-10T23:06:13.621Z,6.70
2019-05-10T23:08:42.310Z,6.83
2019-05-10T23:11:10.744Z,7.15
2019-05-10T23:13:39.443Z,6.47
2019-05-10T23:16:07.940Z,7.15
2019-05-10T23:18:36.362Z,7.10
2019-05-10T23:21:04.798Z,7.70
2019-05-10T23:23:33.240Z,7.70
2019-05-10T23:26:01.684Z,7.60
2019-05-10T23:28:30.100Z,7.00
2019-05-10T23:30:58.624Z,6.42
2019-05-10T23:33:27.063Z,7.15
2019-05-10T23:35:55.509Z,7.00
2019-05-10T23:38:24.508Z,6.55
2019-05-10T23:40:53.148Z,7.55
2019-05-10T23:43:21.667Z,7.25
2019-05-10T23:45:50.110Z,7.33
2019-05-10T23:48:18.548Z,7.08
2019-05-10T23:50:47.011Z,7.53
2019-05-10T23:53:15.607Z,7.65
2019-05-10T23:55:44.058Z,7.70
2019-05-10T23:58:12.709Z,7.62
